sensor_id;sensor_type;location;lat;lon;timestamp;P1;durP1;ratioP1;P2;durP2;ratioP2
6442;SDS011;3254;47.372;8.512;2022-12-07T00:02:04;39.67;;;22.20;;
6442;SDS011;3254;47.372;8.512;2022-12-07T00:04:29;35.83;;;21.80;;
6442;SDS011;3254;47.372;8.512;2022-12-07T00:06:55;37.60;;;20.20;;
6442;SDS011;3254;47.372;8.512;2022-12-07T00:09:21;35.70;;;20.50;;
6442;SDS011;3254;47.372;8.512;2022-12-07T00:11:50;36.03;;;21.33;;
6442;SDS011;3254;47.372;8.512;2022-12-07T00:14:17;34.75;;;20.33;;
6442;SDS011;3254;47.372;8.512;2022-12-07T00:16:43;39.72;;;21.52;;
6442;SDS011;3254;47.372;8.512;2022-12-07T00:19:10;38.35;;;20.83;;
6442;SDS011;3254;47.372;8.512;2022-12-07T00:21:38;39.90;;;20.73;;
6442;SDS011;3254;47.372;8.512;2022-12-07T00:24:04;34.07;;;20.13;;
6442;SDS011;3254;47.372;8.512;2022-12-07T00:26:31;36.30;;;20.40;;
6442;SDS011;3254;47.372;8.512;2022-12-07T00:29:00;29.85;;;18.98;;
6442;SDS011;3254;47.372;8.512;2022-12-07T00:31:29;35.90;;;19.60;;
6442;SDS011;3254;47.372;8.512;2022-12-07T00:33:58;33.85;;;20.42;;
6442;SDS011;3254;47.372;8.512;2022-12-07T00:36:24;39.40;;;20.77;;
6442;SDS011;3254;47.372;8.512;2022-12-07T00:38:50;33.20;;;21.02;;
6442;SDS011;3254;47.372;8.512;2022-12-07T00:41:16;27.60;;;17.57;;
6442;SDS011;3254;47.372;8.512;2022-12-07T00:43:44;31.73;;;20.45;;
6442;SDS011;3254;47.372;8.512;2022-12-07T00:46:11;33.67;;;19.85;;
6442;SDS011;3254;47.372;8.512;2022-12-07T00:48:37;31.30;;;19.95;;
6442;SDS011;3254;47.372;8.512;2022-12-07T00:51:03;34.13;;;19.60;;
6442;SDS011;3254;47.372;8.512;2022-12-07T00:53:29;36.63;;;20.10;;
6442;SDS011;3254;47.372;8.512;2022-12-07T00:55:56;28.63;;;18.90;;
6442;SDS011;3254;47.372;8.512;2022-12-07T00:58:22;32.72;;;18.52;;
6442;SDS011;3254;47.372;8.512;2022-12-07T01:00:48;35.67;;;19.02;;
6442;SDS011;3254;47.372;8.512;2022-12-07T01:03:14;30.83;;;18.37;;
6442;SDS011;3254;47.372;8.512;2022-12-07T01:05:48;28.90;;;17.63;;
6442;SDS011;3254;47.372;8.512;2022-12-07T01:08:15;29.45;;;18.15;;
6442;SDS011;3254;47.372;8.512;2022-12-07T01:10:41;28.93;;;18.83;;
6442;SDS011;3254;47.372;8.512;2022-12-07T01:13:07;30.03;;;18.97;;
6442;SDS011;3254;47.372;8.512;2022-12-07T01:15:32;31.20;;;18.90;;
6442;SDS011;3254;47.372;8.512;2022-12-07T01:17:58;27.60;;;18.73;;
6442;SDS011;3254;47.372;8.512;2022-12-07T01:20:23;33.10;;;19.57;;
6442;SDS011;3254;47.372;8.512;2022-12-07T01:22:49;28.33;;;17.70;;
6442;SDS011;3254;47.372;8.512;2022-12-07T01:25:14;32.73;;;18.60;;
6442;SDS011;3254;47.372;8.512;2022-12-07T01:27:40;30.30;;;19.30;;
6442;SDS011;3254;47.372;8.512;2022-12-07T01:30:06;29.10;;;18.73;;
6442;SDS011;3254;47.372;8.512;2022-12-07T01:32:32;29.17;;;19.10;;
6442;SDS011;3254;47.372;8.512;2022-12-07T01:34:58;30.40;;;19.88;;
6442;SDS011;3254;47.372;8.512;2022-12-07T01:37:23;30.50;;;19.10;;
6442;SDS011;3254;47.372;8.512;2022-12-07T01:39:49;28.97;;;18.50;;
6442;SDS011;3254;47.372;8.512;2022-12-07T01:42:16;29.20;;;19.05;;
6442;SDS011;3254;47.372;8.512;2022-12-07T01:47:43;30.02;;;18.10;;
6442;SDS011;3254;47.372;8.512;2022-12-07T01:50:15;29.35;;;18.25;;
6442;SDS011;3254;47.372;8.512;2022-12-07T01:52:41;29.17;;;17.85;;
6442;SDS011;3254;47.372;8.512;2022-12-07T01:55:09;29.83;;;18.48;;
6442;SDS011;3254;47.372;8.512;2022-12-07T01:57:41;28.65;;;19.27;;
6442;SDS011;3254;47.372;8.512;2022-12-07T02:00:10;29.25;;;18.63;;
6442;SDS011;3254;47.372;8.512;2022-12-07T02:02:37;31.02;;;19.20;;
6442;SDS011;3254;47.372;8.512;2022-12-07T02:05:17;27.83;;;17.50;;
6442;SDS011;3254;47.372;8.512;2022-12-07T02:07:43;29.45;;;18.63;;
6442;SDS011;3254;47.372;8.512;2022-12-07T02:10:12;31.23;;;18.48;;
6442;SDS011;3254;47.372;8.512;2022-12-07T02:12:38;32.63;;;18.42;;
6442;SDS011;3254;47.372;8.512;2022-12-07T02:15:04;28.63;;;18.35;;
6442;SDS011;3254;47.372;8.512;2022-12-07T02:17:54;30.23;;;17.83;;
6442;SDS011;3254;47.372;8.512;2022-12-07T02:20:48;31.30;;;19.00;;
6442;SDS011;3254;47.372;8.512;2022-12-07T02:32:00;32.03;;;19.95;;
6442;SDS011;3254;47.372;8.512;2022-12-07T02:37:00;32.97;;;18.80;;
6442;SDS011;3254;47.372;8.512;2022-12-07T02:39:37;35.05;;;18.42;;
6442;SDS011;3254;47.372;8.512;2022-12-07T02:42:23;35.10;;;18.40;;
6442;SDS011;3254;47.372;8.512;2022-12-07T02:44:56;31.38;;;18.00;;
6442;SDS011;3254;47.372;8.512;2022-12-07T02:47:23;33.45;;;18.70;;
6442;SDS011;3254;47.372;8.512;2022-12-07T02:49:51;38.58;;;20.35;;
6442;SDS011;3254;47.372;8.512;2022-12-07T02:52:17;34.65;;;19.23;;
6442;SDS011;3254;47.372;8.512;2022-12-07T02:54:43;29.00;;;18.30;;
6442;SDS011;3254;47.372;8.512;2022-12-07T02:57:25;32.53;;;19.17;;
6442;SDS011;3254;47.372;8.512;2022-12-07T03:00:05;28.42;;;18.58;;
6442;SDS011;3254;47.372;8.512;2022-12-07T03:05:28;24.58;;;15.93;;
6442;SDS011;3254;47.372;8.512;2022-12-07T03:13:29;29.92;;;17.08;;
6442;SDS011;3254;47.372;8.512;2022-12-07T03:16:15;28.63;;;17.63;;
6442;SDS011;3254;47.372;8.512;2022-12-07T03:18:47;26.83;;;16.48;;
6442;SDS011;3254;47.372;8.512;2022-12-07T03:21:21;27.23;;;16.95;;
6442;SDS011;3254;47.372;8.512;2022-12-07T03:23:58;23.95;;;16.10;;
6442;SDS011;3254;47.372;8.512;2022-12-07T03:26:30;27.27;;;16.08;;
6442;SDS011;3254;47.372;8.512;2022-12-07T03:29:00;28.27;;;16.70;;
6442;SDS011;3254;47.372;8.512;2022-12-07T03:31:33;27.63;;;16.73;;
6442;SDS011;3254;47.372;8.512;2022-12-07T03:34:14;26.83;;;18.08;;
6442;SDS011;3254;47.372;8.512;2022-12-07T03:36:53;29.02;;;17.60;;
6442;SDS011;3254;47.372;8.512;2022-12-07T03:41:58;25.92;;;16.65;;
6442;SDS011;3254;47.372;8.512;2022-12-07T03:44:26;25.50;;;15.90;;
6442;SDS011;3254;47.372;8.512;2022-12-07T03:46:58;25.17;;;16.13;;
6442;SDS011;3254;47.372;8.512;2022-12-07T03:49:52;27.30;;;16.20;;
6442;SDS011;3254;47.372;8.512;2022-12-07T03:52:24;25.60;;;15.63;;
6442;SDS011;3254;47.372;8.512;2022-12-07T03:54:57;24.42;;;16.05;;
6442;SDS011;3254;47.372;8.512;2022-12-07T03:57:31;27.73;;;16.73;;
6442;SDS011;3254;47.372;8.512;2022-12-07T03:59:59;26.58;;;16.65;;
6442;SDS011;3254;47.372;8.512;2022-12-07T04:02:26;25.10;;;15.90;;
6442;SDS011;3254;47.372;8.512;2022-12-07T04:04:53;26.02;;;16.63;;
6442;SDS011;3254;47.372;8.512;2022-12-07T04:07:19;27.25;;;17.08;;
6442;SDS011;3254;47.372;8.512;2022-12-07T04:09:45;31.17;;;17.97;;
6442;SDS011;3254;47.372;8.512;2022-12-07T04:12:11;27.37;;;16.00;;
6442;SDS011;3254;47.372;8.512;2022-12-07T04:14:36;28.50;;;16.27;;
6442;SDS011;3254;47.372;8.512;2022-12-07T04:17:02;23.83;;;15.97;;
6442;SDS011;3254;47.372;8.512;2022-12-07T04:19:29;29.60;;;17.33;;
6442;SDS011;3254;47.372;8.512;2022-12-07T04:21:56;26.65;;;16.70;;
6442;SDS011;3254;47.372;8.512;2022-12-07T04:24:23;23.92;;;15.20;;
6442;SDS011;3254;47.372;8.512;2022-12-07T04:26:49;28.13;;;18.10;;
6442;SDS011;3254;47.372;8.512;2022-12-07T04:29:15;27.20;;;16.50;;
6442;SDS011;3254;47.372;8.512;2022-12-07T04:31:41;27.17;;;15.75;;
6442;SDS011;3254;47.372;8.512;2022-12-07T04:34:09;29.20;;;16.83;;
6442;SDS011;3254;47.372;8.512;2022-12-07T04:36:35;23.60;;;14.98;;
6442;SDS011;3254;47.372;8.512;2022-12-07T04:39:01;28.37;;;16.33;;
6442;SDS011;3254;47.372;8.512;2022-12-07T04:41:27;29.00;;;16.17;;
6442;SDS011;3254;47.372;8.512;2022-12-07T04:43:54;27.00;;;17.20;;
6442;SDS011;3254;47.372;8.512;2022-12-07T04:46:22;26.48;;;16.88;;
6442;SDS011;3254;47.372;8.512;2022-12-07T04:48:49;31.80;;;15.85;;
6442;SDS011;3254;47.372;8.512;2022-12-07T04:51:24;29.10;;;17.80;;
6442;SDS011;3254;47.372;8.512;2022-12-07T04:53:52;29.05;;;16.73;;
6442;SDS011;3254;47.372;8.512;2022-12-07T04:56:18;34.95;;;18.63;;
6442;SDS011;3254;47.372;8.512;2022-12-07T04:58:45;27.50;;;16.15;;
6442;SDS011;3254;47.372;8.512;2022-12-07T05:01:12;26.05;;;16.50;;
6442;SDS011;3254;47.372;8.512;2022-12-07T05:03:39;25.90;;;16.75;;
6442;SDS011;3254;47.372;8.512;2022-12-07T05:06:05;28.40;;;17.03;;
6442;SDS011;3254;47.372;8.512;2022-12-07T05:08:32;26.52;;;15.30;;
6442;SDS011;3254;47.372;8.512;2022-12-07T05:10:58;28.55;;;16.63;;
6442;SDS011;3254;47.372;8.512;2022-12-07T05:13:24;27.17;;;16.17;;
6442;SDS011;3254;47.372;8.512;2022-12-07T05:15:49;24.80;;;15.70;;
6442;SDS011;3254;47.372;8.512;2022-12-07T05:18:15;30.43;;;17.80;;
6442;SDS011;3254;47.372;8.512;2022-12-07T05:20:41;31.43;;;17.77;;
6442;SDS011;3254;47.372;8.512;2022-12-07T05:23:07;30.75;;;17.13;;
6442;SDS011;3254;47.372;8.512;2022-12-07T05:25:33;31.83;;;16.50;;
6442;SDS011;3254;47.372;8.512;2022-12-07T05:27:59;28.23;;;17.60;;
6442;SDS011;3254;47.372;8.512;2022-12-07T05:30:25;30.57;;;17.33;;
6442;SDS011;3254;47.372;8.512;2022-12-07T05:32:51;34.53;;;18.23;;
6442;SDS011;3254;47.372;8.512;2022-12-07T05:35:17;27.83;;;16.13;;
6442;SDS011;3254;47.372;8.512;2022-12-07T05:37:43;26.33;;;16.65;;
6442;SDS011;3254;47.372;8.512;2022-12-07T05:40:10;32.73;;;16.20;;
6442;SDS011;3254;47.372;8.512;2022-12-07T05:42:36;27.42;;;16.00;;
6442;SDS011;3254;47.372;8.512;2022-12-07T05:45:02;29.53;;;17.13;;
6442;SDS011;3254;47.372;8.512;2022-12-07T05:47:28;30.70;;;18.17;;
6442;SDS011;3254;47.372;8.512;2022-12-07T05:49:53;30.37;;;17.47;;
6442;SDS011;3254;47.372;8.512;2022-12-07T05:52:19;32.97;;;17.10;;
6442;SDS011;3254;47.372;8.512;2022-12-07T05:54:44;28.07;;;16.33;;
6442;SDS011;3254;47.372;8.512;2022-12-07T05:57:10;37.00;;;17.57;;
6442;SDS011;3254;47.372;8.512;2022-12-07T05:59:35;30.37;;;16.97;;
6442;SDS011;3254;47.372;8.512;2022-12-07T06:02:05;29.30;;;16.83;;
6442;SDS011;3254;47.372;8.512;2022-12-07T06:04:34;29.17;;;17.50;;
6442;SDS011;3254;47.372;8.512;2022-12-07T06:07:01;30.02;;;16.50;;
6442;SDS011;3254;47.372;8.512;2022-12-07T06:09:28;29.20;;;16.90;;
6442;SDS011;3254;47.372;8.512;2022-12-07T06:11:54;27.90;;;16.13;;
6442;SDS011;3254;47.372;8.512;2022-12-07T06:14:40;28.42;;;16.58;;
6442;SDS011;3254;47.372;8.512;2022-12-07T06:17:06;31.17;;;17.60;;
6442;SDS011;3254;47.372;8.512;2022-12-07T06:19:32;29.37;;;17.53;;
6442;SDS011;3254;47.372;8.512;2022-12-07T06:21:58;31.40;;;17.20;;
6442;SDS011;3254;47.372;8.512;2022-12-07T06:24:24;29.27;;;17.25;;
6442;SDS011;3254;47.372;8.512;2022-12-07T06:26:50;30.33;;;17.35;;
6442;SDS011;3254;47.372;8.512;2022-12-07T06:29:16;34.40;;;17.83;;
6442;SDS011;3254;47.372;8.512;2022-12-07T06:31:42;30.85;;;18.45;;
6442;SDS011;3254;47.372;8.512;2022-12-07T06:34:12;34.43;;;18.07;;
6442;SDS011;3254;47.372;8.512;2022-12-07T06:36:42;44.92;;;18.40;;
6442;SDS011;3254;47.372;8.512;2022-12-07T06:39:09;35.97;;;19.77;;
6442;SDS011;3254;47.372;8.512;2022-12-07T06:41:35;34.40;;;18.43;;
6442;SDS011;3254;47.372;8.512;2022-12-07T06:44:02;31.50;;;18.65;;
6442;SDS011;3254;47.372;8.512;2022-12-07T06:46:28;34.70;;;19.30;;
6442;SDS011;3254;47.372;8.512;2022-12-07T06:48:53;28.70;;;17.17;;
6442;SDS011;3254;47.372;8.512;2022-12-07T06:51:19;43.90;;;21.00;;
6442;SDS011;3254;47.372;8.512;2022-12-07T06:53:45;44.00;;;20.20;;
6442;SDS011;3254;47.372;8.512;2022-12-07T06:56:10;34.93;;;19.40;;
6442;SDS011;3254;47.372;8.512;2022-12-07T06:58:36;39.20;;;20.20;;
6442;SDS011;3254;47.372;8.512;2022-12-07T07:01:01;38.80;;;20.67;;
6442;SDS011;3254;47.372;8.512;2022-12-07T07:03:28;40.50;;;20.33;;
6442;SDS011;3254;47.372;8.512;2022-12-07T07:05:53;47.07;;;22.17;;
6442;SDS011;3254;47.372;8.512;2022-12-07T07:08:19;44.10;;;22.17;;
6442;SDS011;3254;47.372;8.512;2022-12-07T07:10:44;40.23;;;22.00;;
6442;SDS011;3254;47.372;8.512;2022-12-07T07:13:10;49.07;;;21.87;;
6442;SDS011;3254;47.372;8.512;2022-12-07T07:15:37;41.63;;;22.97;;
6442;SDS011;3254;47.372;8.512;2022-12-07T07:18:02;51.50;;;24.17;;
6442;SDS011;3254;47.372;8.512;2022-12-07T07:20:29;49.80;;;22.30;;
6442;SDS011;3254;47.372;8.512;2022-12-07T07:22:55;47.60;;;23.05;;
6442;SDS011;3254;47.372;8.512;2022-12-07T07:25:20;44.73;;;21.80;;
6442;SDS011;3254;47.372;8.512;2022-12-07T07:27:46;46.33;;;22.40;;
6442;SDS011;3254;47.372;8.512;2022-12-07T07:30:12;47.63;;;23.70;;
6442;SDS011;3254;47.372;8.512;2022-12-07T07:32:38;48.90;;;22.60;;
6442;SDS011;3254;47.372;8.512;2022-12-07T07:35:03;52.33;;;25.10;;
6442;SDS011;3254;47.372;8.512;2022-12-07T07:37:29;52.27;;;24.00;;
6442;SDS011;3254;47.372;8.512;2022-12-07T07:39:55;51.70;;;22.83;;
6442;SDS011;3254;47.372;8.512;2022-12-07T07:42:20;54.50;;;22.53;;
6442;SDS011;3254;47.372;8.512;2022-12-07T07:44:46;48.53;;;23.47;;
6442;SDS011;3254;47.372;8.512;2022-12-07T07:47:11;55.97;;;24.40;;
6442;SDS011;3254;47.372;8.512;2022-12-07T07:49:37;51.13;;;25.63;;
6442;SDS011;3254;47.372;8.512;2022-12-07T07:52:03;59.00;;;25.20;;
6442;SDS011;3254;47.372;8.512;2022-12-07T07:54:30;53.83;;;25.60;;
6442;SDS011;3254;47.372;8.512;2022-12-07T07:56:55;54.83;;;24.00;;
6442;SDS011;3254;47.372;8.512;2022-12-07T07:59:21;58.13;;;25.57;;
6442;SDS011;3254;47.372;8.512;2022-12-07T08:01:46;59.80;;;25.70;;
6442;SDS011;3254;47.372;8.512;2022-12-07T08:04:12;60.63;;;26.37;;
6442;SDS011;3254;47.372;8.512;2022-12-07T08:06:37;68.00;;;27.50;;
6442;SDS011;3254;47.372;8.512;2022-12-07T08:09:03;60.93;;;26.67;;
6442;SDS011;3254;47.372;8.512;2022-12-07T08:11:30;57.55;;;26.50;;
6442;SDS011;3254;47.372;8.512;2022-12-07T08:13:56;58.67;;;25.43;;
6442;SDS011;3254;47.372;8.512;2022-12-07T08:16:21;60.17;;;26.50;;
6442;SDS011;3254;47.372;8.512;2022-12-07T08:18:47;60.50;;;27.23;;
6442;SDS011;3254;47.372;8.512;2022-12-07T08:21:13;59.20;;;26.53;;
6442;SDS011;3254;47.372;8.512;2022-12-07T08:23:40;63.78;;;26.92;;
6442;SDS011;3254;47.372;8.512;2022-12-07T08:26:09;54.93;;;24.90;;
6442;SDS011;3254;47.372;8.512;2022-12-07T08:28:36;61.65;;;26.83;;
6442;SDS011;3254;47.372;8.512;2022-12-07T08:31:12;56.22;;;25.17;;
6442;SDS011;3254;47.372;8.512;2022-12-07T08:33:40;67.80;;;26.63;;
6442;SDS011;3254;47.372;8.512;2022-12-07T08:36:07;63.13;;;24.85;;
6442;SDS011;3254;47.372;8.512;2022-12-07T08:38:35;59.13;;;24.83;;
6442;SDS011;3254;47.372;8.512;2022-12-07T08:41:01;63.08;;;25.02;;
6442;SDS011;3254;47.372;8.512;2022-12-07T08:43:27;53.23;;;24.57;;
6442;SDS011;3254;47.372;8.512;2022-12-07T08:48:45;57.30;;;27.20;;
6442;SDS011;3254;47.372;8.512;2022-12-07T08:51:18;51.45;;;25.48;;
6442;SDS011;3254;47.372;8.512;2022-12-07T08:53:44;56.83;;;24.85;;
6442;SDS011;3254;47.372;8.512;2022-12-07T08:56:10;55.25;;;24.52;;
6442;SDS011;3254;47.372;8.512;2022-12-07T08:58:36;54.00;;;25.40;;
6442;SDS011;3254;47.372;8.512;2022-12-07T09:01:03;54.20;;;25.65;;
6442;SDS011;3254;47.372;8.512;2022-12-07T09:03:29;52.83;;;24.25;;
6442;SDS011;3254;47.372;8.512;2022-12-07T09:05:55;50.60;;;24.00;;
6442;SDS011;3254;47.372;8.512;2022-12-07T09:08:21;55.97;;;25.47;;
6442;SDS011;3254;47.372;8.512;2022-12-07T09:10:50;55.05;;;24.73;;
6442;SDS011;3254;47.372;8.512;2022-12-07T09:13:16;52.07;;;24.67;;
6442;SDS011;3254;47.372;8.512;2022-12-07T09:15:41;51.73;;;24.57;;
6442;SDS011;3254;47.372;8.512;2022-12-07T09:18:07;57.17;;;23.10;;
6442;SDS011;3254;47.372;8.512;2022-12-07T09:20:32;49.63;;;23.30;;
6442;SDS011;3254;47.372;8.512;2022-12-07T09:22:58;54.55;;;25.63;;
6442;SDS011;3254;47.372;8.512;2022-12-07T09:25:24;53.60;;;24.97;;
6442;SDS011;3254;47.372;8.512;2022-12-07T09:27:56;51.53;;;24.37;;
6442;SDS011;3254;47.372;8.512;2022-12-07T09:30:22;57.67;;;25.42;;
6442;SDS011;3254;47.372;8.512;2022-12-07T09:32:48;55.33;;;25.47;;
6442;SDS011;3254;47.372;8.512;2022-12-07T09:35:14;55.57;;;24.87;;
6442;SDS011;3254;47.372;8.512;2022-12-07T09:37:39;50.77;;;23.37;;
6442;SDS011;3254;47.372;8.512;2022-12-07T09:40:05;56.53;;;26.47;;
6442;SDS011;3254;47.372;8.512;2022-12-07T09:42:36;48.67;;;23.60;;
6442;SDS011;3254;47.372;8.512;2022-12-07T09:45:19;50.40;;;24.60;;
6442;SDS011;3254;47.372;8.512;2022-12-07T09:47:51;50.13;;;22.75;;
6442;SDS011;3254;47.372;8.512;2022-12-07T09:50:24;52.40;;;25.40;;
6442;SDS011;3254;47.372;8.512;2022-12-07T09:52:52;48.28;;;24.10;;
6442;SDS011;3254;47.372;8.512;2022-12-07T09:55:27;44.33;;;23.75;;
6442;SDS011;3254;47.372;8.512;2022-12-07T09:57:53;51.42;;;24.48;;
6442;SDS011;3254;47.372;8.512;2022-12-07T10:00:21;58.53;;;26.40;;
6442;SDS011;3254;47.372;8.512;2022-12-07T10:02:58;48.35;;;23.65;;
6442;SDS011;3254;47.372;8.512;2022-12-07T10:08:02;52.85;;;22.85;;
6442;SDS011;3254;47.372;8.512;2022-12-07T10:10:30;53.58;;;24.33;;
6442;SDS011;3254;47.372;8.512;2022-12-07T10:15:23;50.07;;;23.23;;
6442;SDS011;3254;47.372;8.512;2022-12-07T10:18:14;48.53;;;24.27;;
6442;SDS011;3254;47.372;8.512;2022-12-07T10:20:47;49.63;;;23.77;;
6442;SDS011;3254;47.372;8.512;2022-12-07T10:23:17;46.60;;;22.30;;
6442;SDS011;3254;47.372;8.512;2022-12-07T10:25:43;48.55;;;21.80;;
6442;SDS011;3254;47.372;8.512;2022-12-07T10:28:14;48.42;;;22.30;;
6442;SDS011;3254;47.372;8.512;2022-12-07T10:30:49;41.70;;;23.02;;
6442;SDS011;3254;47.372;8.512;2022-12-07T10:33:28;40.65;;;19.92;;
6442;SDS011;3254;47.372;8.512;2022-12-07T10:35:54;40.97;;;19.85;;
6442;SDS011;3254;47.372;8.512;2022-12-07T10:38:20;40.33;;;20.15;;
6442;SDS011;3254;47.372;8.512;2022-12-07T10:40:46;36.10;;;20.33;;
6442;SDS011;3254;47.372;8.512;2022-12-07T11:07:30;28.88;;;16.90;;
6442;SDS011;3254;47.372;8.512;2022-12-07T11:18:47;38.47;;;19.75;;
6442;SDS011;3254;47.372;8.512;2022-12-07T11:23:48;34.08;;;18.10;;
6442;SDS011;3254;47.372;8.512;2022-12-07T11:29:20;29.67;;;17.52;;
6442;SDS011;3254;47.372;8.512;2022-12-07T11:32:04;41.40;;;18.50;;
6442;SDS011;3254;47.372;8.512;2022-12-07T11:34:40;30.60;;;17.83;;
6442;SDS011;3254;47.372;8.512;2022-12-07T11:37:21;31.63;;;18.63;;
6442;SDS011;3254;47.372;8.512;2022-12-07T11:39:54;30.98;;;17.92;;
6442;SDS011;3254;47.372;8.512;2022-12-07T11:42:26;32.67;;;18.17;;
6442;SDS011;3254;47.372;8.512;2022-12-07T11:44:57;30.80;;;17.35;;
6442;SDS011;3254;47.372;8.512;2022-12-07T11:47:36;25.05;;;16.55;;
6442;SDS011;3254;47.372;8.512;2022-12-07T11:52:59;28.88;;;17.50;;
6442;SDS011;3254;47.372;8.512;2022-12-07T11:55:40;29.13;;;16.52;;
6442;SDS011;3254;47.372;8.512;2022-12-07T12:03:56;21.67;;;14.30;;
6442;SDS011;3254;47.372;8.512;2022-12-07T12:06:27;23.52;;;13.43;;
6442;SDS011;3254;47.372;8.512;2022-12-07T12:09:02;21.60;;;14.23;;
6442;SDS011;3254;47.372;8.512;2022-12-07T12:14:57;21.17;;;12.95;;
6442;SDS011;3254;47.372;8.512;2022-12-07T12:20:29;18.88;;;12.40;;
6442;SDS011;3254;47.372;8.512;2022-12-07T12:25:36;17.35;;;12.52;;
6442;SDS011;3254;47.372;8.512;2022-12-07T12:28:03;21.45;;;14.15;;
6442;SDS011;3254;47.372;8.512;2022-12-07T12:30:36;19.80;;;13.10;;
6442;SDS011;3254;47.372;8.512;2022-12-07T12:33:14;22.38;;;13.35;;
6442;SDS011;3254;47.372;8.512;2022-12-07T12:36:17;19.92;;;13.10;;
6442;SDS011;3254;47.372;8.512;2022-12-07T12:59:31;18.33;;;11.77;;
6442;SDS011;3254;47.372;8.512;2022-12-07T13:04:49;19.95;;;13.10;;
6442;SDS011;3254;47.372;8.512;2022-12-07T13:10:33;15.40;;;11.60;;
6442;SDS011;3254;47.372;8.512;2022-12-07T13:20:57;14.27;;;11.10;;
6442;SDS011;3254;47.372;8.512;2022-12-07T13:26:20;14.15;;;10.32;;
6442;SDS011;3254;47.372;8.512;2022-12-07T13:29:07;15.07;;;10.70;;
6442;SDS011;3254;47.372;8.512;2022-12-07T13:34:31;28.85;;;10.50;;
6442;SDS011;3254;47.372;8.512;2022-12-07T13:37:18;13.40;;;9.20;;
6442;SDS011;3254;47.372;8.512;2022-12-07T13:39:52;12.05;;;9.60;;
6442;SDS011;3254;47.372;8.512;2022-12-07T13:42:27;14.52;;;10.38;;
6442;SDS011;3254;47.372;8.512;2022-12-07T13:44:54;17.58;;;10.95;;
6442;SDS011;3254;47.372;8.512;2022-12-07T13:47:41;14.32;;;10.02;;
6442;SDS011;3254;47.372;8.512;2022-12-07T13:50:27;13.88;;;9.68;;
6442;SDS011;3254;47.372;8.512;2022-12-07T13:52:55;13.05;;;10.27;;
6442;SDS011;3254;47.372;8.512;2022-12-07T13:55:23;15.10;;;10.85;;
6442;SDS011;3254;47.372;8.512;2022-12-07T13:57:49;17.47;;;10.73;;
6442;SDS011;3254;47.372;8.512;2022-12-07T14:00:26;15.10;;;10.32;;
6442;SDS011;3254;47.372;8.512;2022-12-07T14:02:58;13.35;;;10.32;;
6442;SDS011;3254;47.372;8.512;2022-12-07T14:05:26;12.85;;;10.35;;
6442;SDS011;3254;47.372;8.512;2022-12-07T14:08:00;19.17;;;11.98;;
6442;SDS011;3254;47.372;8.512;2022-12-07T14:10:33;16.88;;;11.20;;
6442;SDS011;3254;47.372;8.512;2022-12-07T14:13:01;17.73;;;11.02;;
6442;SDS011;3254;47.372;8.512;2022-12-07T14:15:29;13.45;;;10.70;;
6442;SDS011;3254;47.372;8.512;2022-12-07T14:17:56;14.45;;;10.05;;
6442;SDS011;3254;47.372;8.512;2022-12-07T14:20:39;20.63;;;13.18;;
6442;SDS011;3254;47.372;8.512;2022-12-07T14:23:20;16.98;;;10.80;;
6442;SDS011;3254;47.372;8.512;2022-12-07T14:25:50;13.88;;;10.63;;
6442;SDS011;3254;47.372;8.512;2022-12-07T14:28:31;17.65;;;10.50;;
6442;SDS011;3254;47.372;8.512;2022-12-07T14:30:58;17.67;;;11.73;;
6442;SDS011;3254;47.372;8.512;2022-12-07T14:33:25;19.08;;;11.57;;
6442;SDS011;3254;47.372;8.512;2022-12-07T14:35:51;16.33;;;10.93;;
6442;SDS011;3254;47.372;8.512;2022-12-07T14:38:23;11.93;;;9.88;;
6442;SDS011;3254;47.372;8.512;2022-12-07T14:40:50;16.50;;;10.48;;
6442;SDS011;3254;47.372;8.512;2022-12-07T14:43:17;19.13;;;11.07;;
6442;SDS011;3254;47.372;8.512;2022-12-07T14:45:43;15.20;;;10.75;;
6442;SDS011;3254;47.372;8.512;2022-12-07T14:48:13;14.35;;;10.57;;
6442;SDS011;3254;47.372;8.512;2022-12-07T14:50:41;29.42;;;11.25;;
6442;SDS011;3254;47.372;8.512;2022-12-07T14:53:13;15.35;;;10.68;;
6442;SDS011;3254;47.372;8.512;2022-12-07T14:55:41;13.05;;;9.50;;
6442;SDS011;3254;47.372;8.512;2022-12-07T14:58:11;12.47;;;9.30;;
6442;SDS011;3254;47.372;8.512;2022-12-07T15:00:41;11.13;;;8.65;;
6442;SDS011;3254;47.372;8.512;2022-12-07T15:03:07;13.88;;;10.25;;
6442;SDS011;3254;47.372;8.512;2022-12-07T15:05:33;16.23;;;10.40;;
6442;SDS011;3254;47.372;8.512;2022-12-07T15:07:59;12.20;;;9.27;;
6442;SDS011;3254;47.372;8.512;2022-12-07T15:10:26;12.07;;;9.70;;
6442;SDS011;3254;47.372;8.512;2022-12-07T15:12:55;14.38;;;9.43;;
6442;SDS011;3254;47.372;8.512;2022-12-07T15:15:44;19.42;;;9.50;;
6442;SDS011;3254;47.372;8.512;2022-12-07T15:18:10;11.43;;;9.10;;
6442;SDS011;3254;47.372;8.512;2022-12-07T15:20:35;16.03;;;9.90;;
6442;SDS011;3254;47.372;8.512;2022-12-07T15:23:01;15.50;;;10.67;;
6442;SDS011;3254;47.372;8.512;2022-12-07T15:25:26;15.43;;;10.53;;
6442;SDS011;3254;47.372;8.512;2022-12-07T15:27:52;16.40;;;10.73;;
6442;SDS011;3254;47.372;8.512;2022-12-07T15:30:18;11.07;;;8.80;;
6442;SDS011;3254;47.372;8.512;2022-12-07T15:32:43;13.87;;;10.17;;
6442;SDS011;3254;47.372;8.512;2022-12-07T15:35:09;14.40;;;9.90;;
6442;SDS011;3254;47.372;8.512;2022-12-07T15:37:34;14.37;;;9.40;;
6442;SDS011;3254;47.372;8.512;2022-12-07T15:40:00;17.83;;;11.10;;
6442;SDS011;3254;47.372;8.512;2022-12-07T15:42:25;19.17;;;10.00;;
6442;SDS011;3254;47.372;8.512;2022-12-07T15:44:51;15.50;;;10.80;;
6442;SDS011;3254;47.372;8.512;2022-12-07T15:47:29;15.85;;;10.88;;
6442;SDS011;3254;47.372;8.512;2022-12-07T15:49:58;15.85;;;10.60;;
6442;SDS011;3254;47.372;8.512;2022-12-07T15:52:23;13.97;;;10.53;;
6442;SDS011;3254;47.372;8.512;2022-12-07T15:54:49;24.70;;;11.63;;
6442;SDS011;3254;47.372;8.512;2022-12-07T15:57:14;25.00;;;11.13;;
6442;SDS011;3254;47.372;8.512;2022-12-07T15:59:40;13.10;;;9.87;;
6442;SDS011;3254;47.372;8.512;2022-12-07T16:02:05;24.83;;;10.27;;
6442;SDS011;3254;47.372;8.512;2022-12-07T16:04:32;16.67;;;10.35;;
6442;SDS011;3254;47.372;8.512;2022-12-07T16:06:58;13.37;;;10.07;;
6442;SDS011;3254;47.372;8.512;2022-12-07T16:09:23;15.23;;;10.47;;
6442;SDS011;3254;47.372;8.512;2022-12-07T16:11:49;17.33;;;10.23;;
6442;SDS011;3254;47.372;8.512;2022-12-07T16:14:15;11.00;;;9.07;;
6442;SDS011;3254;47.372;8.512;2022-12-07T16:16:41;19.10;;;9.90;;
6442;SDS011;3254;47.372;8.512;2022-12-07T16:19:06;14.50;;;10.20;;
6442;SDS011;3254;47.372;8.512;2022-12-07T16:21:33;18.05;;;10.48;;
6442;SDS011;3254;47.372;8.512;2022-12-07T16:24:00;19.40;;;10.30;;
6442;SDS011;3254;47.372;8.512;2022-12-07T16:26:26;15.87;;;10.43;;
6442;SDS011;3254;47.372;8.512;2022-12-07T16:28:52;13.37;;;9.80;;
6442;SDS011;3254;47.372;8.512;2022-12-07T16:31:19;12.93;;;10.00;;
6442;SDS011;3254;47.372;8.512;2022-12-07T16:33:47;16.17;;;10.95;;
6442;SDS011;3254;47.372;8.512;2022-12-07T16:36:14;14.55;;;10.40;;
6442;SDS011;3254;47.372;8.512;2022-12-07T16:38:43;17.17;;;11.05;;
6442;SDS011;3254;47.372;8.512;2022-12-07T16:41:10;14.52;;;10.40;;
6442;SDS011;3254;47.372;8.512;2022-12-07T16:43:36;17.48;;;11.60;;
6442;SDS011;3254;47.372;8.512;2022-12-07T16:46:02;16.13;;;11.48;;
6442;SDS011;3254;47.372;8.512;2022-12-07T16:48:28;21.65;;;11.57;;
6442;SDS011;3254;47.372;8.512;2022-12-07T16:50:54;14.80;;;10.73;;
6442;SDS011;3254;47.372;8.512;2022-12-07T16:53:20;15.70;;;10.80;;
6442;SDS011;3254;47.372;8.512;2022-12-07T16:55:47;21.77;;;11.30;;
6442;SDS011;3254;47.372;8.512;2022-12-07T16:58:13;18.27;;;10.65;;
6442;SDS011;3254;47.372;8.512;2022-12-07T17:00:40;20.10;;;10.75;;
6442;SDS011;3254;47.372;8.512;2022-12-07T17:03:07;21.75;;;12.50;;
6442;SDS011;3254;47.372;8.512;2022-12-07T17:05:33;18.27;;;11.43;;
6442;SDS011;3254;47.372;8.512;2022-12-07T17:08:02;15.45;;;10.68;;